Time;durP1;ratioP1;P1;durP2;ratioP2;P2;SDS_P1;SDS_P2;PMS_P1;PMS_P2;Temp;Humidity;BMP_temperature;BMP_pressure;BME280_temperature;BME280_humidity;BME280_pressure;Samples;Min_cycle;Max_cycle;Signal;HPM_P1;HPM_P2
2023/07/20 00:00:50;;;;;;;7.03;4.00;;;;;;;24.39;nan;62213.88;5071677;28;20169;-69
2023/07/20 00:03:22;;;;;;;8.23;4.30;;;;;;;24.46;nan;62137.69;5071690;28;20633;-68
2023/07/20 00:05:48;;;;;;;6.82;4.15;;;;;;;24.41;nan;62048.97;5071877;28;20275;-67
2023/07/20 00:08:14;;;;;;;9.40;4.30;;;;;;;24.42;nan;62232.38;5071895;28;20174;-68
2023/07/20 00:10:40;;;;;;;7.28;3.92;;;;;;;24.62;nan;62146.03;5071833;28;20174;-68
2023/07/20 00:13:06;;;;;;;7.22;4.38;;;;;;;24.40;nan;62131.41;5071768;28;20631;-68
2023/07/20 00:15:31;;;;;;;7.57;4.60;;;;;;;24.43;nan;62045.44;5071966;28;20691;-69
2023/07/20 00:17:57;;;;;;;7.55;4.50;;;;;;;24.45;nan;62094.75;5071946;28;20252;-69
2023/07/20 00:20:24;;;;;;;7.78;4.05;;;;;;;24.79;nan;62130.81;5071725;28;20193;-69
2023/07/20 00:22:51;;;;;;;6.20;4.20;;;;;;;24.89;nan;62155.31;5071718;28;20181;-68
2023/07/20 00:25:16;;;;;;;8.30;4.25;;;;;;;24.89;nan;62139.63;5071455;28;20174;-69
2023/07/20 00:27:42;;;;;;;7.63;4.45;;;;;;;24.91;nan;62157.59;5071482;28;20201;-69
2023/07/20 00:30:08;;;;;;;7.47;4.15;;;;;;;25.00;nan;62157.38;5071163;28;20170;-68
2023/07/20 00:32:33;;;;;;;5.57;4.13;;;;;;;25.07;nan;62227.53;5071354;28;20652;-69
2023/07/20 00:34:58;;;;;;;7.20;4.65;;;;;;;25.56;nan;62322.13;5071631;28;20271;-70
2023/07/20 00:37:24;;;;;;;7.55;4.45;;;;;;;25.46;nan;62298.19;5070177;28;20178;-69
2023/07/20 00:39:49;;;;;;;6.68;4.10;;;;;;;25.81;nan;62284.63;5071153;28;20174;-68
2023/07/20 00:42:15;;;;;;;7.88;4.70;;;;;;;25.84;nan;62296.50;5071330;28;20166;-68
2023/07/20 00:44:40;;;;;;;8.65;4.63;;;;;;;25.70;nan;62248.53;5071106;28;20197;-69
2023/07/20 00:47:06;;;;;;;6.95;4.18;;;;;;;25.94;nan;62309.94;5071015;28;20259;-68
2023/07/20 00:49:31;;;;;;;5.90;3.95;;;;;;;25.95;nan;62364.03;5053084;28;20644;-70
2023/07/20 00:52:00;;;;;;;6.65;4.10;;;;;;;25.73;nan;62178.66;5071165;28;20171;-69
2023/07/20 00:54:27;;;;;;;5.72;4.10;;;;;;;25.78;nan;62275.97;5070836;28;20171;-62
2023/07/20 00:56:53;;;;;;;6.07;4.40;;;;;;;25.82;nan;62226.13;5070299;28;20610;-63
2023/07/20 00:59:18;;;;;;;9.15;4.05;;;;;;;26.15;nan;62380.50;5070187;28;20594;-61
2023/07/20 01:01:44;;;;;;;7.75;4.63;;;;;;;26.06;nan;62328.88;5069830;28;20197;-64
2023/07/20 01:04:10;;;;;;;6.97;4.03;;;;;;;25.46;nan;62363.03;5070156;28;20198;-63
2023/07/20 01:06:44;;;;;;;5.80;4.20;;;;;;;26.31;nan;62383.63;5073203;28;20293;-61
2023/07/20 01:09:44;;;;;;;6.80;4.20;;;;;;;26.00;nan;62350.84;5074179;28;20179;-64
2023/07/20 01:12:38;;;;;;;9.18;4.40;;;;;;;26.25;nan;62439.09;5075066;28;20177;-61
2023/07/20 01:15:04;;;;;;;5.95;3.95;;;;;;;25.95;nan;62253.47;5072221;28;20190;-62
2023/07/20 01:17:30;;;;;;;6.95;4.13;;;;;;;26.18;nan;62449.97;5074647;28;20167;-60
2023/07/20 01:19:55;;;;;;;5.10;3.42;;;;;;;26.07;nan;62356.22;5074739;28;20185;-64
2023/07/20 01:22:23;;;;;;;5.97;4.00;;;;;;;26.29;nan;62404.94;5074564;28;20180;-61
2023/07/20 01:24:56;;;;;;;7.97;4.50;;;;;;;26.07;nan;62355.63;5075198;28;20524;-63
2023/07/20 01:27:52;;;;;;;7.38;4.13;;;;;;;26.41;nan;62441.66;5074881;28;20629;-64
2023/07/20 01:30:20;;;;;;;13.38;3.80;;;;;;;26.38;nan;62482.78;5074778;28;20166;-61
2023/07/20 01:32:47;;;;;;;6.88;4.25;;;;;;;26.31;nan;62331.22;5074180;28;20225;-62
2023/07/20 01:35:15;;;;;;;7.55;3.72;;;;;;;26.11;nan;62339.81;5074487;28;20648;-62
2023/07/20 01:37:44;;;;;;;6.22;4.03;;;;;;;26.29;nan;62344.09;5074395;28;20645;-60
2023/07/20 01:40:10;;;;;;;6.40;4.15;;;;;;;26.23;nan;62350.34;5074602;28;20688;-64
2023/07/20 01:42:36;;;;;;;6.68;4.38;;;;;;;26.36;nan;62388.75;5074215;28;20205;-62
2023/07/20 01:45:01;;;;;;;5.88;4.05;;;;;;;26.25;nan;62484.22;5074324;28;20653;-63
2023/07/20 01:47:27;;;;;;;10.80;4.00;;;;;;;26.34;nan;62384.44;5074338;28;20209;-63
2023/07/20 01:49:52;;;;;;;8.68;3.92;;;;;;;26.33;nan;62354.47;5074224;28;20645;-66
2023/07/20 01:52:17;;;;;;;5.72;3.67;;;;;;;26.03;nan;62440.72;5074097;28;20174;-61
2023/07/20 01:54:43;;;;;;;7.13;4.25;;;;;;;26.33;nan;62380.09;5074117;28;20181;-64
2023/07/20 01:57:08;;;;;;;5.80;3.75;;;;;;;25.62;nan;62380.78;5073915;28;20625;-62
2023/07/20 01:59:33;;;;;;;6.50;4.03;;;;;;;26.21;nan;62390.00;5074106;28;20258;-62
2023/07/20 02:01:59;;;;;;;6.18;3.83;;;;;;;26.18;nan;62379.25;5073753;28;20231;-61
2023/07/20 02:04:24;;;;;;;7.13;4.00;;;;;;;26.08;nan;62299.72;5073632;28;20300;-64
2023/07/20 02:06:49;;;;;;;7.60;4.05;;;;;;;25.94;nan;62490.66;5073876;28;20205;-60
2023/07/20 02:09:15;;;;;;;5.35;3.50;;;;;;;26.13;nan;62535.38;5074178;28;20180;-61
2023/07/20 02:11:40;;;;;;;7.05;4.00;;;;;;;25.81;nan;62329.16;5073875;28;20181;-63
2023/07/20 02:14:06;;;;;;;5.90;3.90;;;;;;;26.09;nan;62363.16;5073159;28;20602;-62
2023/07/20 02:16:31;;;;;;;6.40;4.05;;;;;;;26.01;nan;62315.31;5072838;28;20620;-62
2023/07/20 02:18:56;;;;;;;5.30;3.90;;;;;;;26.12;nan;62356.09;5073666;28;20185;-61
2023/07/20 02:21:22;;;;;;;6.70;3.78;;;;;;;26.09;nan;62329.66;5073726;28;20166;-62
2023/07/20 02:23:48;;;;;;;5.28;3.80;;;;;;;25.97;nan;62354.69;5073414;28;20182;-64
2023/07/20 02:26:14;;;;;;;6.38;3.92;;;;;;;26.08;nan;62328.53;5072698;28;20195;-63
2023/07/20 02:28:41;;;;;;;6.57;3.75;;;;;;;25.67;nan;62308.50;5073456;28;20638;-63
2023/07/20 02:31:06;;;;;;;4.78;3.63;;;;;;;25.98;nan;62319.75;5073164;28;20170;-63
2023/07/20 02:33:32;;;;;;;5.85;4.00;;;;;;;25.57;nan;62396.00;5073525;28;20170;-63
2023/07/20 02:35:57;;;;;;;6.07;4.03;;;;;;;25.58;nan;62266.25;5073348;28;20652;-63
2023/07/20 02:38:22;;;;;;;5.40;3.72;;;;;;;25.81;nan;62327.09;5072619;28;20198;-63
2023/07/20 02:40:48;;;;;;;7.90;4.10;;;;;;;24.56;nan;62301.19;5073274;28;20200;-63
2023/07/20 02:43:13;;;;;;;7.40;4.22;;;;;;;25.73;nan;62341.53;5072758;28;20178;-63
2023/07/20 02:45:42;;;;;;;5.07;3.58;;;;;;;25.72;nan;62300.56;5072414;28;20171;-61
2023/07/20 02:48:08;;;;;;;6.70;4.03;;;;;;;25.73;nan;62291.22;5073467;28;20178;-62
2023/07/20 02:50:34;;;;;;;5.53;3.58;;;;;;;25.64;nan;62284.16;5073084;28;20223;-60
2023/07/20 02:53:00;;;;;;;6.55;4.05;;;;;;;25.41;nan;62250.03;5072999;28;20209;-65
2023/07/20 02:55:25;;;;;;;7.05;4.22;;;;;;;25.69;nan;62305.00;5072825;28;20582;-63
2023/07/20 02:57:51;;;;;;;5.57;3.70;;;;;;;25.66;nan;62278.00;5072519;28;20174;-64
2023/07/20 03:00:16;;;;;;;6.72;4.20;;;;;;;25.32;nan;62252.88;5072380;28;20598;-63
2023/07/20 03:02:42;;;;;;;5.85;3.47;;;;;;;25.29;nan;62226.47;5073015;28;20612;-64
2023/07/20 03:05:08;;;;;;;8.57;4.13;;;;;;;25.26;nan;62178.56;5072637;28;20222;-63
2023/07/20 03:07:33;;;;;;;6.40;4.32;;;;;;;25.56;nan;62324.19;5072537;28;20292;-65
2023/07/20 03:09:59;;;;;;;8.18;4.28;;;;;;;25.06;nan;62216.50;5072611;28;20257;-64
2023/07/20 03:12:24;;;;;;;9.45;4.90;;;;;;;25.41;nan;62268.94;5073462;28;20206;-59
2023/07/20 03:14:50;;;;;;;7.35;3.63;;;;;;;25.07;nan;62212.44;5072364;28;20227;-62
2023/07/20 03:17:15;;;;;;;6.15;3.97;;;;;;;25.40;nan;62239.00;5072719;28;20226;-61
2023/07/20 03:19:41;;;;;;;6.47;4.07;;;;;;;25.21;nan;62219.97;5072371;28;20188;-62
2023/07/20 03:22:07;;;;;;;6.60;4.15;;;;;;;25.55;nan;62231.44;5071989;28;20219;-64
2023/07/20 03:24:32;;;;;;;7.35;3.80;;;;;;;25.68;nan;62275.03;5087185;28;20174;-65
2023/07/20 03:26:58;;;;;;;7.38;4.28;;;;;;;25.76;nan;62334.47;5074480;28;20571;-61
2023/07/20 03:29:23;;;;;;;10.10;4.55;;;;;;;26.16;nan;62405.22;5073797;28;20253;-63
2023/07/20 03:31:49;;;;;;;6.57;4.30;;;;;;;26.33;nan;62396.41;5093062;28;20200;-61
2023/07/20 03:34:14;;;;;;;5.20;3.97;;;;;;;26.41;nan;62467.84;5092607;28;20176;-62
2023/07/20 03:36:40;;;;;;;5.70;4.05;;;;;;;26.59;nan;62582.81;5074713;28;20173;-61
2023/07/20 03:39:05;;;;;;;6.22;4.10;;;;;;;26.99;nan;62672.69;5092795;28;20169;-61
2023/07/20 03:41:30;;;;;;;7.28;4.07;;;;;;;27.00;nan;62452.88;5092535;28;20181;-63
2023/07/20 03:43:56;;;;;;;6.22;3.90;;;;;;;27.64;nan;62620.59;5092141;28;20177;-63
2023/07/20 03:46:21;;;;;;;5.60;4.18;;;;;;;28.08;nan;62685.56;5092294;28;20197;-60
2023/07/20 03:48:47;;;;;;;7.97;4.45;;;;;;;28.35;nan;62747.50;5092553;28;20636;-65
2023/07/20 03:51:13;;;;;;;8.55;4.22;;;;;;;28.42;nan;62837.66;5092683;28;20173;-60
2023/07/20 03:53:39;;;;;;;8.23;4.10;;;;;;;28.74;nan;62867.97;5091955;28;20177;-61
2023/07/20 03:56:04;;;;;;;7.97;5.40;;;;;;;29.63;nan;62834.72;5071213;28;20190;-60
2023/07/20 03:58:31;;;;;;;8.10;4.10;;;;;;;30.27;nan;62992.00;5072005;28;20299;-62
2023/07/20 04:00:57;;;;;;;6.45;4.28;;;;;;;30.60;nan;63029.94;5071874;28;20664;-66
2023/07/20 04:03:26;;;;;;;9.35;4.25;;;;;;;31.08;nan;63078.69;5071759;28;20162;-63
2023/07/20 04:05:55;;;;;;;5.35;3.70;;;;;;;31.89;nan;63210.44;5071315;28;20700;-62
2023/07/20 04:08:21;;;;;;;8.13;4.57;;;;;;;31.84;nan;63323.66;5072001;28;20261;-62
2023/07/20 04:10:46;;;;;;;5.35;3.85;;;;;;;32.26;nan;63268.38;5072115;28;20162;-62
2023/07/20 04:13:12;;;;;;;7.57;4.20;;;;;;;32.76;nan;63386.91;5071079;28;20166;-62
2023/07/20 04:15:37;;;;;;;8.15;4.47;;;;;;;33.35;nan;63512.19;5071977;28;20252;-64
2023/07/20 04:18:03;;;;;;;6.35;4.07;;;;;;;33.08;nan;63431.22;5072073;28;20173;-63
2023/07/20 04:20:30;;;;;;;7.90;4.55;;;;;;;33.17;nan;63502.56;5071851;28;20644;-63
2023/07/20 04:22:56;;;;;;;6.63;4.30;;;;;;;34.04;nan;63529.75;5071812;28;20660;-63
2023/07/20 04:25:21;;;;;;;9.57;3.83;;;;;;;34.41;nan;63731.28;5071698;28;20261;-64
2023/07/20 04:27:47;;;;;;;7.85;4.18;;;;;;;34.40;nan;63653.13;5071148;28;20189;-61
2023/07/20 04:30:12;;;;;;;9.13;4.20;;;;;;;34.55;nan;63699.69;5072228;28;20179;-63
2023/07/20 04:32:45;;;;;;;8.48;4.68;;;;;;;34.35;nan;63706.34;5071561;28;20165;-62
2023/07/20 04:35:11;;;;;;;7.53;4.07;;;;;;;33.84;nan;63602.75;5071526;28;20181;-61
2023/07/20 04:37:36;;;;;;;8.15;4.57;;;;;;;33.45;nan;63627.16;5071240;28;20187;-63
2023/07/20 04:40:03;;;;;;;8.02;4.22;;;;;;;33.20;nan;63479.53;5074965;28;20264;-63
2023/07/20 04:42:28;;;;;;;5.75;3.90;;;;;;;33.23;nan;63548.69;5075236;28;20196;-62
2023/07/20 04:44:53;;;;;;;7.20;4.28;;;;;;;33.57;nan;63542.91;5075984;28;20620;-62
2023/07/20 04:47:19;;;;;;;6.28;3.95;;;;;;;33.77;nan;63557.50;5075117;28;20289;-61
2023/07/20 04:49:44;;;;;;;6.97;4.47;;;;;;;33.32;nan;63473.69;5075138;28;20174;-61
2023/07/20 04:52:10;;;;;;;8.75;4.57;;;;;;;32.48;nan;63346.06;5075185;28;20172;-63
2023/07/20 04:54:35;;;;;;;16.60;5.07;;;;;;;31.91;nan;63255.03;5075424;28;20226;-62
2023/07/20 04:57:01;;;;;;;10.27;5.10;;;;;;;31.72;nan;63244.31;5074572;28;20272;-61
2023/07/20 04:59:26;;;;;;;9.68;5.05;;;;;;;31.23;nan;63195.75;5071990;28;20176;-62
2023/07/20 05:01:51;;;;;;;10.32;5.85;;;;;;;31.54;nan;63179.19;5074739;28;20675;-62
2023/07/20 05:04:17;;;;;;;10.15;6.05;;;;;;;30.92;nan;63084.63;5075081;28;20169;-61
2023/07/20 05:06:43;;;;;;;14.23;5.75;;;;;;;30.80;nan;63107.78;5075122;28;20335;-64
2023/07/20 05:09:08;;;;;;;9.90;5.05;;;;;;;30.78;nan;63331.94;5075056;28;20666;-67
2023/07/20 05:11:34;;;;;;;11.40;5.32;;;;;;;31.06;nan;63171.50;5074332;28;20253;-59
2023/07/20 05:14:00;;;;;;;11.10;5.88;;;;;;;31.26;nan;63096.19;5075288;28;20162;-60
2023/07/20 05:16:25;;;;;;;10.50;5.60;;;;;;;31.40;nan;63170.44;5074568;28;20526;-60
2023/07/20 05:18:51;;;;;;;11.57;5.80;;;;;;;31.46;nan;63249.25;5074896;28;20179;-61
2023/07/20 05:21:16;;;;;;;11.32;6.38;;;;;;;31.34;nan;63256.00;5075079;28;20188;-63
2023/07/20 05:23:42;;;;;;;14.70;5.63;;;;;;;31.58;nan;63212.88;5074357;28;20612;-63
2023/07/20 05:26:08;;;;;;;10.88;5.32;;;;;;;31.88;nan;63273.31;5074451;28;20193;-62
2023/07/20 05:28:33;;;;;;;9.77;5.00;;;;;;;32.04;nan;63174.81;5074539;28;20629;-63
2023/07/20 05:30:59;;;;;;;11.30;5.25;;;;;;;32.43;nan;63303.81;5073999;28;20169;-61
2023/07/20 05:33:25;;;;;;;8.30;4.75;;;;;;;32.61;nan;63469.63;5073433;28;20153;-63
2023/07/20 05:35:50;;;;;;;7.60;5.38;;;;;;;31.82;nan;63142.13;5073235;28;20177;-61
2023/07/20 05:38:16;;;;;;;11.65;5.50;;;;;;;31.36;nan;63142.59;5073355;28;20173;-61
2023/07/20 05:40:42;;;;;;;11.05;5.30;;;;;;;28.36;nan;64597.63;5072942;28;20180;-60
2023/07/20 05:43:08;;;;;;;13.38;4.85;;;;;;;30.64;nan;63042.44;5073174;28;20166;-62
2023/07/20 05:45:33;;;;;;;8.60;5.10;;;;;;;30.88;nan;63103.22;5072810;28;20242;-64
2023/07/20 05:47:58;;;;;;;8.38;4.72;;;;;;;30.50;nan;63099.66;5074127;28;20258;-64
2023/07/20 05:50:24;;;;;;;8.30;5.43;;;;;;;30.41;nan;63058.19;5073627;28;20169;-63
2023/07/20 05:52:52;;;;;;;9.57;5.32;;;;;;;30.56;nan;62998.94;5074490;28;20174;-63
2023/07/20 05:55:18;;;;;;;7.18;4.85;;;;;;;30.68;nan;63012.72;5073701;28;20668;-63
2023/07/20 05:57:43;;;;;;;7.88;4.82;;;;;;;30.94;nan;63081.06;5072668;28;20714;-61
2023/07/20 06:00:10;;;;;;;7.70;4.68;;;;;;;30.81;nan;63071.97;5091931;28;20177;-63
2023/07/20 06:02:35;;;;;;;8.10;5.05;;;;;;;30.61;nan;63130.81;5074149;28;20174;-64
2023/07/20 06:05:01;;;;;;;7.35;4.63;;;;;;;30.96;nan;63128.25;5079945;28;20258;-64
2023/07/20 06:07:26;;;;;;;11.30;5.00;;;;;;;31.19;nan;63115.13;5094085;28;20667;-60
2023/07/20 06:09:52;;;;;;;6.75;4.82;;;;;;;31.32;nan;63113.66;5093882;28;20590;-62
2023/07/20 06:12:17;;;;;;;8.60;5.07;;;;;;;31.27;nan;63166.59;5094162;28;20714;-63
2023/07/20 06:14:43;;;;;;;7.35;4.68;;;;;;;31.48;nan;63187.56;5094328;28;20721;-63
2023/07/20 06:17:08;;;;;;;7.72;4.55;;;;;;;31.73;nan;63324.78;5093868;28;20164;-60
2023/07/20 06:19:34;;;;;;;10.65;4.72;;;;;;;31.78;nan;63219.47;5093929;28;20179;-60
2023/07/20 06:21:59;;;;;;;8.82;4.63;;;;;;;32.07;nan;63283.47;5093839;28;20164;-62
2023/07/20 06:24:25;;;;;;;6.72;4.53;;;;;;;32.14;nan;63297.44;5094108;28;20256;-62
2023/07/20 06:26:50;;;;;;;7.55;4.75;;;;;;;32.22;nan;63290.78;5094182;28;20200;-60
2023/07/20 06:29:15;;;;;;;6.90;4.18;;;;;;;32.14;nan;63281.56;5093657;28;20169;-61
2023/07/20 06:31:41;;;;;;;9.45;4.40;;;;;;;32.18;nan;63489.34;5093569;28;20695;-63
2023/07/20 06:34:06;;;;;;;6.82;4.55;;;;;;;31.98;nan;63313.94;5093596;28;20177;-63
2023/07/20 06:36:31;;;;;;;8.40;4.47;;;;;;;32.29;nan;63346.50;5093896;28;20176;-60
2023/07/20 06:38:57;;;;;;;7.53;4.60;;;;;;;32.24;nan;63346.00;5093287;28;20185;-65
2023/07/20 06:41:22;;;;;;;8.25;4.40;;;;;;;32.44;nan;63329.38;5093719;28;20200;-63
2023/07/20 06:43:48;;;;;;;8.18;4.40;;;;;;;32.61;nan;63449.03;5093598;28;20176;-62
2023/07/20 06:46:13;;;;;;;7.03;4.30;;;;;;;32.81;nan;63325.91;5093182;28;20193;-64
2023/07/20 06:48:39;;;;;;;8.02;4.40;;;;;;;32.87;nan;63393.75;5093320;28;20177;-60
2023/07/20 06:51:04;;;;;;;7.65;4.70;;;;;;;32.90;nan;63393.97;5093025;28;20175;-61
2023/07/20 06:53:30;;;;;;;9.25;5.53;;;;;;;32.93;nan;63524.59;5093472;28;20200;-62
2023/07/20 06:55:58;;;;;;;6.20;3.97;;;;;;;33.07;nan;63546.06;5092926;28;20639;-61
2023/07/20 06:58:24;;;;;;;8.15;4.90;;;;;;;33.01;nan;63584.19;5093366;28;20175;-63
2023/07/20 07:00:49;;;;;;;8.00;5.10;;;;;;;33.32;nan;63537.31;5093092;28;20169;-66
2023/07/20 07:03:15;;;;;;;7.85;5.10;;;;;;;33.34;nan;63503.09;5092875;28;20194;-62
2023/07/20 07:05:41;;;;;;;12.23;4.88;;;;;;;33.24;nan;63476.22;5092976;28;20220;-61
2023/07/20 07:08:06;;;;;;;7.25;4.95;;;;;;;33.52;nan;63507.97;5093141;28;20170;-63
2023/07/20 07:10:32;;;;;;;6.47;4.78;;;;;;;33.42;nan;63560.06;5093053;28;20588;-64
2023/07/20 07:12:58;;;;;;;8.23;5.13;;;;;;;33.38;nan;63512.44;5092784;28;20198;-64
2023/07/20 07:15:23;;;;;;;8.88;5.13;;;;;;;33.38;nan;63491.22;5093065;28;20636;-63
2023/07/20 07:17:48;;;;;;;7.15;5.07;;;;;;;33.43;nan;63504.97;5092716;28;20243;-59
2023/07/20 07:20:14;;;;;;;9.85;4.97;;;;;;;33.34;nan;63590.59;5092706;28;20623;-60
2023/07/20 07:22:39;;;;;;;7.38;4.65;;;;;;;33.32;nan;63502.84;5092425;28;20168;-61
2023/07/20 07:25:05;;;;;;;7.38;4.47;;;;;;;30.82;nan;63117.44;5092805;28;20168;-64
2023/07/20 07:27:31;;;;;;;8.60;4.30;;;;;;;32.99;nan;63476.47;5092403;28;20278;-64
2023/07/20 07:29:56;;;;;;;8.73;4.40;;;;;;;32.74;nan;63411.09;5073333;28;20272;-61
2023/07/20 07:32:22;;;;;;;8.13;4.90;;;;;;;32.65;nan;63416.59;5072388;28;20177;-61
2023/07/20 07:34:48;;;;;;;7.05;4.60;;;;;;;32.81;nan;63413.28;5070929;28;20188;-61
2023/07/20 07:37:14;;;;;;;9.25;4.45;;;;;;;33.43;nan;63524.09;5071834;28;20170;-63
2023/07/20 07:39:40;;;;;;;6.93;4.50;;;;;;;33.30;nan;63605.06;5071724;28;20180;-64
2023/07/20 07:42:05;;;;;;;7.47;4.43;;;;;;;33.29;nan;63524.38;5071810;28;20525;-58
2023/07/20 07:44:31;;;;;;;5.85;4.40;;;;;;;32.76;nan;63492.84;5072072;28;20161;-63
2023/07/20 07:46:56;;;;;;;8.25;4.93;;;;;;;32.62;nan;63436.94;5071626;28;20189;-61
2023/07/20 07:49:22;;;;;;;6.18;4.38;;;;;;;32.88;nan;63636.53;5071676;28;20647;-59
2023/07/20 07:51:48;;;;;;;8.80;4.18;;;;;;;32.90;nan;63540.25;5071619;28;20162;-63
2023/07/20 07:54:14;;;;;;;6.70;4.95;;;;;;;33.27;nan;63548.00;5071686;28;20219;-62
2023/07/20 07:56:39;;;;;;;5.95;4.05;;;;;;;33.58;nan;63609.78;5071557;28;20166;-59
2023/07/20 07:59:05;;;;;;;6.53;4.65;;;;;;;33.66;nan;63611.72;5071522;28;20176;-63
2023/07/20 08:01:30;;;;;;;6.95;4.80;;;;;;;33.48;nan;63484.22;5071421;28;20166;-64
2023/07/20 08:03:55;;;;;;;7.20;3.90;;;;;;;33.23;nan;63427.34;5071116;28;20180;-59
2023/07/20 08:06:21;;;;;;;8.32;4.88;;;;;;;33.27;nan;63521.50;5070589;28;20707;-59
2023/07/20 08:08:47;;;;;;;7.57;4.60;;;;;;;33.17;nan;63441.03;5071023;28;20226;-62
2023/07/20 08:11:12;;;;;;;8.68;4.80;;;;;;;32.96;nan;63432.69;5071317;28;20223;-62
2023/07/20 08:13:38;;;;;;;8.90;4.85;;;;;;;33.35;nan;63522.22;5070601;28;20223;-59
2023/07/20 08:16:04;;;;;;;10.50;4.65;;;;;;;33.86;nan;63642.22;5070727;28;20174;-63
2023/07/20 08:18:29;;;;;;;7.80;4.70;;;;;;;33.94;nan;63524.09;5070962;28;20176;-64
2023/07/20 08:20:54;;;;;;;7.30;4.68;;;;;;;34.19;nan;63907.56;5071007;28;20173;-60
2023/07/20 08:23:20;;;;;;;10.07;4.95;;;;;;;33.80;nan;63687.75;5070900;28;20250;-60
2023/07/20 08:25:45;;;;;;;6.00;4.63;;;;;;;34.13;nan;63609.75;5069852;28;20353;-63
2023/07/20 08:28:13;;;;;;;7.60;4.57;;;;;;;34.09;nan;63578.00;5071033;28;20207;-62
2023/07/20 08:30:43;;;;;;;7.68;5.13;;;;;;;33.90;nan;63590.53;5071017;28;20248;-61
2023/07/20 08:33:10;;;;;;;8.55;4.93;;;;;;;34.22;nan;63837.28;5070856;28;20173;-61
2023/07/20 08:35:36;;;;;;;13.85;5.28;;;;;;;34.68;nan;63773.22;5070866;28;20177;-62
2023/07/20 08:38:02;;;;;;;5.80;4.40;;;;;;;34.66;nan;63679.97;5070462;28;20199;-65
2023/07/20 08:40:27;;;;;;;9.85;5.30;;;;;;;34.47;nan;63764.78;5071032;28;20632;-63
2023/07/20 08:42:54;;;;;;;7.72;5.10;;;;;;;34.53;nan;63710.66;5071035;28;20197;-60
2023/07/20 08:45:22;;;;;;;8.43;4.95;;;;;;;34.69;nan;63806.25;5071194;28;20234;-62
2023/07/20 08:47:49;;;;;;;8.73;5.07;;;;;;;34.61;nan;63743.81;5070889;28;20226;-61
2023/07/20 08:50:16;;;;;;;9.32;5.05;;;;;;;34.66;nan;63760.25;5070567;28;20585;-62
2023/07/20 08:52:41;;;;;;;8.93;5.65;;;;;;;34.46;nan;63654.75;5070641;28;20177;-63
2023/07/20 08:55:07;;;;;;;8.15;4.68;;;;;;;34.49;nan;63751.19;5070929;28;20158;-62
2023/07/20 08:57:33;;;;;;;7.47;5.00;;;;;;;34.12;nan;63581.47;5070847;28;20179;-61
2023/07/20 09:00:04;;;;;;;12.20;5.13;;;;;;;34.31;nan;63643.31;5070013;28;20170;-64
2023/07/20 09:02:35;;;;;;;6.70;4.70;;;;;;;34.52;nan;63717.47;5070527;28;20207;-62
2023/07/20 09:05:00;;;;;;;6.93;4.93;;;;;;;34.35;nan;63668.59;5070208;28;20223;-62
2023/07/20 09:07:26;;;;;;;7.35;4.40;;;;;;;34.04;nan;63649.75;5070289;28;20591;-59
2023/07/20 09:09:52;;;;;;;10.88;5.43;;;;;;;34.13;nan;63598.56;5070538;28;20178;-63
2023/07/20 09:12:17;;;;;;;7.25;4.85;;;;;;;33.97;nan;63585.94;5070191;28;20598;-61
2023/07/20 09:14:44;;;;;;;7.80;5.25;;;;;;;34.20;nan;63728.78;5070782;28;20162;-62
2023/07/20 09:17:13;;;;;;;7.88;4.90;;;;;;;34.72;nan;63772.53;5070451;28;20166;-64
2023/07/20 09:19:45;;;;;;;11.30;5.30;;;;;;;34.93;nan;63854.75;5070759;28;20536;-62
2023/07/20 09:22:10;;;;;;;7.88;4.90;;;;;;;35.31;nan;63853.06;5070729;28;20176;-63
2023/07/20 09:24:35;;;;;;;6.85;4.90;;;;;;;35.29;nan;63882.66;5070964;28;20166;-66
2023/07/20 09:27:05;;;;;;;7.72;5.22;;;;;;;35.67;nan;63886.28;5073781;28;20684;-61
2023/07/20 09:29:30;;;;;;;7.82;4.80;;;;;;;35.84;nan;63967.19;5074489;28;20173;-62
2023/07/20 09:32:05;;;;;;;8.48;5.20;;;;;;;35.98;nan;64001.53;5073938;28;20208;-67
2023/07/20 09:34:31;;;;;;;7.75;5.00;;;;;;;36.11;nan;64064.56;5074084;28;20207;-64
2023/07/20 09:36:58;;;;;;;9.13;5.00;;;;;;;36.12;nan;63988.47;5074015;28;20185;-67
2023/07/20 09:39:24;;;;;;;8.30;5.00;;;;;;;36.14;nan;64052.66;5072694;28;20180;-59
2023/07/20 09:41:51;;;;;;;7.35;4.78;;;;;;;36.11;nan;64003.31;5074427;28;20162;-59
2023/07/20 09:44:16;;;;;;;7.00;4.82;;;;;;;35.98;nan;63975.47;5073550;28;20178;-60
2023/07/20 09:46:43;;;;;;;7.20;4.22;;;;;;;36.06;nan;64074.72;5073665;28;20197;-65
2023/07/20 09:49:09;;;;;;;9.13;4.93;;;;;;;36.41;nan;64130.84;5073563;28;20641;-63
2023/07/20 09:51:35;;;;;;;8.98;5.53;;;;;;;36.44;nan;64097.59;5073350;28;20185;-61
2023/07/20 09:54:03;;;;;;;9.27;4.88;;;;;;;36.59;nan;64115.06;5073546;28;20640;-62
2023/07/20 09:56:30;;;;;;;7.03;4.50;;;;;;;32.31;nan;65360.72;5073568;28;20173;-64
2023/07/20 09:58:56;;;;;;;9.95;4.93;;;;;;;36.44;nan;64027.75;5073991;28;20165;-62
2023/07/20 10:01:23;;;;;;;8.07;5.60;;;;;;;36.53;nan;64083.53;5074841;28;20184;-58
2023/07/20 10:03:52;;;;;;;6.32;4.63;;;;;;;36.37;nan;64190.13;5074351;28;20193;-70
2023/07/20 10:06:23;;;;;;;7.72;4.63;;;;;;;36.58;nan;64103.22;5074377;28;20229;-69
2023/07/20 10:08:52;;;;;;;6.50;4.45;;;;;;;36.46;nan;64134.56;5073956;28;20177;-68
2023/07/20 10:11:18;;;;;;;8.10;5.07;;;;;;;36.47;nan;64060.56;5073824;28;20181;-69
2023/07/20 10:13:46;;;;;;;6.93;4.75;;;;;;;36.62;nan;64251.25;5074020;28;20227;-68
2023/07/20 10:16:19;;;;;;;8.43;4.60;;;;;;;36.82;nan;64164.66;5074050;28;20280;-68
2023/07/20 10:18:59;;;;;;;10.07;4.57;;;;;;;36.77;nan;64153.50;5073948;28;20173;-71
2023/07/20 10:21:25;;;;;;;6.82;4.53;;;;;;;36.89;nan;64141.38;5073677;28;20173;-70
2023/07/20 10:23:51;;;;;;;6.88;4.68;;;;;;;36.99;nan;64206.34;5071835;28;20556;-70
2023/07/20 10:26:16;;;;;;;5.43;4.28;;;;;;;36.87;nan;64197.13;5073174;28;20668;-70
2023/07/20 10:28:43;;;;;;;7.95;4.50;;;;;;;36.93;nan;64202.03;5071555;28;20196;-70
2023/07/20 10:31:11;;;;;;;7.72;5.20;;;;;;;37.03;nan;64264.34;5073190;28;20173;-70
2023/07/20 10:33:38;;;;;;;7.13;4.18;;;;;;;36.82;nan;64119.31;5073315;28;20695;-71
2023/07/20 10:36:07;;;;;;;6.22;4.25;;;;;;;37.05;nan;64252.75;5072930;28;20207;-70
2023/07/20 10:38:44;;;;;;;8.80;4.55;;;;;;;37.04;nan;64272.94;5073019;28;20162;-70
2023/07/20 10:41:18;;;;;;;10.50;4.75;;;;;;;37.15;nan;64269.75;5073000;28;20192;-69
2023/07/20 10:43:44;;;;;;;4.97;3.90;;;;;;;37.02;nan;64219.94;5072258;28;20773;-69
2023/07/20 10:46:12;;;;;;;6.95;4.75;;;;;;;37.10;nan;64215.91;5071810;28;20547;-70
2023/07/20 10:49:05;;;;;;;8.73;4.30;;;;;;;37.41;nan;64300.03;5071806;28;20181;-70
2023/07/20 10:51:38;;;;;;;8.18;4.50;;;;;;;37.20;nan;64227.56;5073107;28;20637;-71
2023/07/20 10:54:03;;;;;;;8.07;4.05;;;;;;;37.64;nan;64363.09;5072699;28;20172;-71
2023/07/20 10:56:29;;;;;;;6.72;3.90;;;;;;;37.51;nan;64293.00;5072930;28;20170;-70
2023/07/20 10:59:01;;;;;;;9.15;3.88;;;;;;;37.44;nan;64289.63;5072907;28;20185;-71
2023/07/20 11:01:30;;;;;;;7.15;4.00;;;;;;;37.57;nan;64353.41;5072922;28;20581;-71
2023/07/20 11:04:00;;;;;;;6.88;3.90;;;;;;;37.45;nan;64173.38;5072756;28;20169;-72
2023/07/20 11:06:25;;;;;;;5.53;3.92;;;;;;;37.54;nan;64347.25;5072658;28;20220;-71
2023/07/20 11:09:03;;;;;;;8.25;3.85;;;;;;;37.53;nan;64372.78;5072541;28;20172;-71
2023/07/20 11:11:30;;;;;;;5.75;3.97;;;;;;;37.50;nan;64262.47;5072365;28;20177;-70
2023/07/20 11:14:04;;;;;;;5.70;3.70;;;;;;;37.36;nan;64206.19;5071934;28;20153;-71
2023/07/20 11:16:36;;;;;;;4.85;3.60;;;;;;;37.34;nan;64275.28;5072812;28;20222;-70
2023/07/20 11:19:03;;;;;;;8.57;4.28;;;;;;;37.30;nan;64300.56;5071184;28;20185;-71
2023/07/20 11:21:35;;;;;;;5.63;3.90;;;;;;;37.54;nan;64314.63;5072459;28;20211;-70
2023/07/20 11:24:03;;;;;;;6.28;4.10;;;;;;;37.37;nan;64314.06;5072474;28;20165;-71
2023/07/20 11:26:28;;;;;;;5.47;3.55;;;;;;;37.77;nan;64356.88;5072053;28;20227;-70
2023/07/20 11:28:54;;;;;;;5.13;3.88;;;;;;;37.76;nan;64353.63;5070815;28;20260;-69
2023/07/20 11:31:19;;;;;;;6.88;3.97;;;;;;;37.71;nan;64374.50;5072552;28;20637;-71
2023/07/20 11:33:45;;;;;;;6.03;3.90;;;;;;;37.99;nan;64419.94;5071020;28;20177;-71
2023/07/20 11:36:11;;;;;;;6.90;3.60;;;;;;;37.93;nan;64547.06;5072238;28;20188;-70
2023/07/20 11:38:36;;;;;;;7.63;3.80;;;;;;;37.29;nan;64312.75;5072213;28;20632;-71
2023/07/20 11:41:04;;;;;;;6.90;3.83;;;;;;;37.23;nan;64180.34;5072066;28;20253;-70
2023/07/20 11:43:30;;;;;;;6.22;3.75;;;;;;;37.24;nan;64349.59;5071720;28;20196;-70
2023/07/20 11:45:56;;;;;;;5.47;3.55;;;;;;;36.90;nan;64248.63;5071754;28;20170;-71